createdAt,value
2019-01-03T00:00:44.470Z,104083.27
2019-01-03T00:03:37.296Z,104091.11
2019-01-03T00:06:34.005Z,104091.27
2019-01-03T00:09:27.197Z,104093.98
2019-01-03T00:12:20.899Z,104095.86
2019-01-03T00:15:06.942Z,104098.13
2019-01-03T00:18:06.400Z,104095.72
2019-01-03T00:20:47.620Z,104096.16
2019-01-03T00:23:37.479Z,104094.52
2019-01-03T00:26:19.575Z,104091.13
2019-01-03T00:29:25.283Z,104090.95
2019-01-03T00:32:19.215Z,104098.28
2019-01-03T00:35:06.833Z,104098.34
2019-01-03T00:38:06.032Z,104102.08
2019-01-03T00:40:52.086Z,104106.48
2019-01-03T00:43:43.456Z,104104.17
2019-01-03T00:46:34.015Z,104110.59
2019-01-03T00:49:17.358Z,104104.78
2019-01-03T00:52:19.734Z,104114.23
2019-01-03T00:55:13.589Z,104107.92
2019-01-03T00:58:10.403Z,104110.03
2019-01-03T01:00:56.711Z,104109.97
2019-01-03T01:03:50.552Z,104112.86
2019-01-03T01:06:56.244Z,104114.71
2019-01-03T01:09:44.841Z,104111.66
2019-01-03T01:12:32.846Z,104115.63
2019-01-03T01:15:39.121Z,104119.58
2019-01-03T01:18:30.307Z,104126.20
2019-01-03T01:21:16.042Z,104125.47
2019-01-03T01:24:16.438Z,104135.67
2019-01-03T01:26:57.927Z,104137.77
2019-01-03T01:29:46.050Z,104138.03
2019-01-03T01:32:32.617Z,104139.77
2019-01-03T01:35:29.442Z,104142.38
2019-01-03T01:38:15.550Z,104138.73
2019-01-03T01:41:19.205Z,104144.53
2019-01-03T01:44:07.760Z,104156.06
2019-01-03T01:46:54.157Z,104164.97
2019-01-03T01:49:36.995Z,104156.34
2019-01-03T01:52:27.537Z,104152.81
2019-01-03T01:55:13.679Z,104155.88
2019-01-03T01:57:59.501Z,104166.35
2019-01-03T02:00:43.868Z,104168.35
2019-01-03T02:03:43.513Z,104170.95
2019-01-03T02:06:28.303Z,104177.12
2019-01-03T02:09:14.375Z,104172.00
2019-01-03T02:11:54.244Z,104174.63
2019-01-03T02:14:44.678Z,104169.53
2019-01-03T02:17:30.801Z,104174.02
2019-01-03T02:20:18.607Z,104174.91
2019-01-03T02:23:24.587Z,104171.00
2019-01-03T02:26:12.013Z,104169.80
2019-01-03T02:29:08.371Z,104162.14
2019-01-03T02:31:55.882Z,104166.95
2019-01-03T02:34:43.481Z,104163.10
2019-01-03T02:37:30.930Z,104158.02
2019-01-03T02:40:17.349Z,104156.88
2019-01-03T02:43:17.716Z,104165.94
2019-01-03T02:46:05.310Z,104161.70
2019-01-03T02:48:56.553Z,104164.55
2019-01-03T02:51:42.830Z,104148.92
2019-01-03T02:54:30.392Z,104151.25
2019-01-03T02:57:17.951Z,104145.86
2019-01-03T03:00:25.894Z,104144.32
2019-01-03T03:03:15.485Z,104142.50
2019-01-03T03:05:55.835Z,104150.54
2019-01-03T03:08:46.488Z,104149.05
2019-01-03T03:11:40.129Z,104145.26
2019-01-03T03:14:27.890Z,104142.22
2019-01-03T03:17:30.594Z,104138.64
2019-01-03T03:20:30.306Z,104137.91
2019-01-03T03:23:07.810Z,104133.47
2019-01-03T03:26:04.264Z,104133.81
2019-01-03T03:28:54.905Z,104133.75
2019-01-03T03:31:57.687Z,104141.94
2019-01-03T03:34:53.647Z,104133.27
2019-01-03T03:37:46.806Z,104122.81
2019-01-03T03:40:33.126Z,104116.14
2019-01-03T03:43:23.278Z,104115.03
2019-01-03T03:46:12.586Z,104114.80
2019-01-03T03:48:59.897Z,104111.31
2019-01-03T03:51:47.531Z,104115.00
2019-01-03T03:54:34.223Z,104121.98
2019-01-03T03:57:21.734Z,104125.77
2019-01-03T04:00:27.614Z,104112.77
2019-01-03T04:03:25.339Z,104109.83
2019-01-03T04:06:24.747Z,104110.27
2019-01-03T04:09:17.146Z,104108.89
2019-01-03T04:12:03.425Z,104102.78
2019-01-03T04:14:49.851Z,104108.03
2019-01-03T04:17:40.401Z,104098.34
2019-01-03T04:20:36.707Z,104101.33
2019-01-03T04:23:39.104Z,104097.05
2019-01-03T04:26:25.200Z,104101.73
2019-01-03T04:29:11.276Z,104092.56
2019-01-03T04:31:53.452Z,104097.16
2019-01-03T04:34:39.240Z,104094.72
2019-01-03T04:37:26.815Z,104100.72
2019-01-03T04:40:13.127Z,104095.78
2019-01-03T04:43:03.649Z,104104.77
2019-01-03T04:45:53.838Z,104097.13
2019-01-03T04:48:41.423Z,104099.59
2019-01-03T04:51:27.673Z,104095.97
2019-01-03T04:54:20.507Z,104092.76
2019-01-03T04:57:20.191Z,104091.39
2019-01-03T05:00:06.464Z,104088.78
2019-01-03T05:02:59.725Z,104092.90
2019-01-03T05:05:56.574Z,104089.55
2019-01-03T05:08:59.328Z,104089.28
2019-01-03T05:11:45.482Z,104063.59
2019-01-03T05:14:18.807Z,104078.06
2019-01-03T05:17:05.272Z,104079.90
2019-01-03T05:20:01.950Z,104081.84
2019-01-03T05:22:52.606Z,104086.84
2019-01-03T05:25:38.991Z,104090.71
2019-01-03T05:28:38.362Z,104088.96
2019-01-03T05:31:44.392Z,104094.97
2019-01-03T05:34:30.762Z,104100.59
2019-01-03T05:37:28.280Z,104099.98
2019-01-03T05:40:18.911Z,104087.34
2019-01-03T05:43:05.198Z,104091.11
2019-01-03T05:46:05.171Z,104097.35
2019-01-03T05:48:53.185Z,104106.64
2019-01-03T05:51:51.275Z,104113.27
2019-01-03T05:54:44.449Z,104112.66
2019-01-03T05:57:34.926Z,104111.27
2019-01-03T06:00:21.757Z,104114.18
2019-01-03T06:03:08.090Z,104115.97
2019-01-03T06:05:55.121Z,104116.34
2019-01-03T06:08:42.573Z,104113.28
2019-01-03T06:11:24.330Z,104116.12
2019-01-03T06:14:11.955Z,104111.39
2019-01-03T06:17:05.573Z,104115.48
2019-01-03T06:20:08.336Z,104115.94
2019-01-03T06:23:13.713Z,104105.92
2019-01-03T06:26:02.678Z,104102.80
2019-01-03T06:29:05.162Z,104102.22
2019-01-03T06:31:55.648Z,104103.80
2019-01-03T06:34:52.215Z,104109.84
2019-01-03T06:37:46.747Z,104120.16
2019-01-03T06:40:29.075Z,104121.25
2019-01-03T06:43:22.610Z,104126.30
2019-01-03T06:46:22.124Z,104124.84
2019-01-03T06:49:00.243Z,104117.86
2019-01-03T06:51:46.332Z,104113.86
2019-01-03T06:54:32.688Z,104115.91
2019-01-03T06:57:16.628Z,104120.86
2019-01-03T07:00:04.195Z,104121.64
2019-01-03T07:03:03.618Z,104125.15
2019-01-03T07:05:49.881Z,104123.88
2019-01-03T07:08:34.298Z,104120.41
2019-01-03T07:11:30.833Z,104124.39
2019-01-03T07:14:18.293Z,104121.67
2019-01-03T07:17:04.354Z,104120.05
2019-01-03T07:20:04.800Z,104128.45
2019-01-03T07:22:49.054Z,104127.58
2019-01-03T07:25:45.668Z,104126.36
2019-01-03T07:28:45.231Z,104134.41
2019-01-03T07:31:31.617Z,104137.14
2019-01-03T07:34:25.333Z,104133.51
2019-01-03T07:37:15.955Z,104137.80
2019-01-03T07:40:02.408Z,104136.76
2019-01-03T07:43:02.145Z,104134.56
2019-01-03T07:45:58.458Z,104137.52
2019-01-03T07:48:44.605Z,104145.54
2019-01-03T07:51:35.312Z,104142.39
2019-01-03T07:54:25.602Z,104143.67
2019-01-03T07:57:16.193Z,104147.45
2019-01-03T08:00:02.276Z,104148.59
2019-01-03T08:02:48.217Z,104150.73
2019-01-03T08:05:44.935Z,104150.18
2019-01-03T08:08:38.127Z,104153.52
2019-01-03T08:11:23.938Z,104154.72
2019-01-03T08:14:10.001Z,104152.72
2019-01-03T08:16:50.986Z,104157.38
2019-01-03T08:19:57.061Z,104160.59
2019-01-03T08:22:43.189Z,104163.10
2019-01-03T08:25:29.539Z,104169.47
2019-01-03T08:28:19.890Z,104176.63
2019-01-03T08:31:10.610Z,104179.78
2019-01-03T08:33:56.775Z,104179.95
2019-01-03T08:36:42.660Z,104189.11
2019-01-03T08:39:41.994Z,104189.70
2019-01-03T08:42:28.496Z,104189.70
2019-01-03T08:45:14.586Z,104185.75
2019-01-03T08:48:08.357Z,104181.70
2019-01-03T08:51:04.775Z,104191.20
2019-01-03T08:53:50.971Z,104190.41
2019-01-03T08:56:37.348Z,104191.75
2019-01-03T08:59:19.194Z,104186.77
2019-01-03T09:02:05.859Z,104196.92
2019-01-03T09:05:09.063Z,104201.64
2019-01-03T09:07:59.437Z,104201.50
2019-01-03T09:10:53.079Z,104204.43
2019-01-03T09:13:39.365Z,104208.17
2019-01-03T09:16:35.879Z,104208.54
2019-01-03T09:19:23.205Z,104208.23
2019-01-03T09:22:15.406Z,104203.13
2019-01-03T09:25:08.937Z,104210.69
2019-01-03T09:27:58.566Z,104203.97
2019-01-03T09:30:44.925Z,104201.44
2019-01-03T09:33:44.647Z,104209.00
2019-01-03T09:36:44.586Z,104210.00
2019-01-03T09:39:44.366Z,104216.16
2019-01-03T09:42:34.368Z,104207.77
2019-01-03T09:45:06.595Z,104204.94
2019-01-03T09:47:34.790Z,104203.92
2019-01-03T09:50:09.979Z,104202.67
2019-01-03T09:52:44.201Z,104212.66
2019-01-03T09:55:13.040Z,104198.39
2019-01-03T09:57:44.254Z,104207.21
2019-01-03T10:00:12.534Z,104211.84
2019-01-03T10:02:42.885Z,104210.59
2019-01-03T10:05:11.081Z,104215.29
2019-01-03T10:07:39.031Z,104218.79
2019-01-03T10:10:08.847Z,104208.94
2019-01-03T10:12:36.892Z,104213.67
2019-01-03T10:15:05.220Z,104206.03
2019-01-03T10:17:33.443Z,104206.61
2019-01-03T10:20:01.242Z,104211.38
2019-01-03T10:22:29.229Z,104207.33
2019-01-03T10:24:57.159Z,104207.31
2019-01-03T10:27:24.967Z,104195.47
2019-01-03T10:29:52.895Z,104198.55
2019-01-03T10:32:20.795Z,104193.50
2019-01-03T10:34:48.703Z,104195.75
2019-01-03T10:37:16.533Z,104198.94
2019-01-03T10:39:44.351Z,104194.84
2019-01-03T10:42:12.296Z,104195.08
2019-01-03T10:44:40.099Z,104186.52
2019-01-03T10:47:08.039Z,104191.66
2019-01-03T10:49:35.936Z,104193.41
2019-01-03T10:52:03.801Z,104178.73
2019-01-03T10:54:31.814Z,104176.45
2019-01-03T10:56:59.633Z,104168.79
2019-01-03T10:59:27.514Z,104174.16
2019-01-03T11:01:55.549Z,104167.95
2019-01-03T11:04:23.641Z,104169.88
2019-01-03T11:06:51.469Z,104171.72
2019-01-03T11:09:19.431Z,104166.82
2019-01-03T11:11:47.300Z,104163.05
2019-01-03T11:14:15.272Z,104157.23
2019-01-03T11:16:46.317Z,104159.47
2019-01-03T11:19:14.088Z,104161.66
2019-01-03T11:21:42.079Z,104149.42
2019-01-03T11:24:10.001Z,104144.06
2019-01-03T11:26:37.785Z,104154.73
2019-01-03T11:29:05.795Z,104151.77
2019-01-03T11:31:33.740Z,104152.25
2019-01-03T11:34:01.570Z,104140.52
2019-01-03T11:36:31.297Z,104150.06
2019-01-03T11:38:59.066Z,104149.28
2019-01-03T11:41:26.881Z,104147.87
2019-01-03T11:43:54.822Z,103978.41
2019-01-03T11:46:22.654Z,104151.27
2019-01-03T11:48:50.815Z,104142.25
2019-01-03T11:51:18.846Z,104134.91
2019-01-03T11:53:50.154Z,104135.00
2019-01-03T11:56:18.033Z,104137.47
2019-01-03T11:58:46.155Z,104133.96
2019-01-03T12:01:14.216Z,104126.96
2019-01-03T12:03:42.053Z,104126.75
2019-01-03T12:06:12.733Z,104108.55
2019-01-03T12:08:40.717Z,104117.42
2019-01-03T12:11:08.648Z,104119.89
2019-01-03T12:13:36.606Z,104124.27
2019-01-03T12:16:04.708Z,104122.30
2019-01-03T12:18:34.652Z,104121.95
2019-01-03T12:21:04.935Z,104120.78
2019-01-03T12:23:32.874Z,104126.43
2019-01-03T12:26:00.890Z,104119.30
2019-01-03T12:28:29.865Z,104117.78
2019-01-03T12:30:58.561Z,104120.81
2019-01-03T12:33:26.592Z,104116.38
2019-01-03T12:35:54.800Z,104117.23
2019-01-03T12:38:22.604Z,104118.27
2019-01-03T12:40:50.465Z,104115.52
2019-01-03T12:43:18.403Z,104116.71
2019-01-03T12:45:46.225Z,104115.91
2019-01-03T12:48:16.886Z,104118.70
2019-01-03T12:50:44.840Z,104124.52
2019-01-03T12:53:12.739Z,104117.77
2019-01-03T12:55:42.371Z,104119.69
2019-01-03T12:58:10.473Z,104118.84
2019-01-03T13:00:41.365Z,104121.14
2019-01-03T13:03:10.401Z,104121.67
2019-01-03T13:05:41.540Z,104119.73
2019-01-03T13:08:09.499Z,104122.47
2019-01-03T13:10:40.577Z,104118.00
2019-01-03T13:13:08.478Z,104116.14
2019-01-03T13:15:36.446Z,104119.71
2019-01-03T13:18:08.938Z,104115.67
2019-01-03T13:20:37.117Z,104111.08
2019-01-03T13:23:07.297Z,104107.24
2019-01-03T13:25:35.358Z,104109.64
2019-01-03T13:28:03.206Z,104105.78
2019-01-03T13:30:31.571Z,104107.16
2019-01-03T13:32:59.672Z,104104.22
2019-01-03T13:35:33.520Z,104101.21
2019-01-03T13:38:03.038Z,104096.50
2019-01-03T13:40:34.290Z,104090.94
2019-01-03T13:43:07.354Z,104097.40
2019-01-03T13:45:37.192Z,104103.25
2019-01-03T13:48:05.458Z,104101.63
2019-01-03T13:50:36.443Z,104111.06
2019-01-03T13:53:04.547Z,104110.36
2019-01-03T13:55:32.719Z,104110.62
2019-01-03T13:58:00.865Z,104108.28
2019-01-03T14:00:28.741Z,104111.86
2019-01-03T14:02:56.739Z,104113.05
2019-01-03T14:05:24.861Z,104122.35
2019-01-03T14:07:52.837Z,104122.11
2019-01-03T14:10:20.766Z,104120.84
2019-01-03T14:12:48.855Z,104119.44
2019-01-03T14:15:16.953Z,104126.90
2019-01-03T14:17:45.069Z,104126.30
2019-01-03T14:20:13.824Z,104132.58
2019-01-03T14:22:41.628Z,104130.20
2019-01-03T14:25:09.573Z,104131.14
2019-01-03T14:27:37.596Z,104133.01
2019-01-03T14:30:07.447Z,104130.80
2019-01-03T14:32:35.391Z,104135.48
2019-01-03T14:35:03.224Z,104137.63
2019-01-03T14:37:31.210Z,104147.26
2019-01-03T14:39:59.193Z,104140.58
2019-01-03T14:42:26.978Z,104137.59
2019-01-03T14:44:54.935Z,104136.48
2019-01-03T14:47:23.969Z,104139.92
2019-01-03T14:49:51.854Z,104133.45
2019-01-03T14:52:19.933Z,104129.34
2019-01-03T14:54:48.378Z,104129.09
2019-01-03T14:57:18.531Z,104132.32
2019-01-03T14:59:49.698Z,104132.23
2019-01-03T15:02:19.731Z,104137.30
2019-01-03T15:04:47.760Z,104135.53
2019-01-03T15:07:16.070Z,104136.60
2019-01-03T15:09:44.153Z,104134.13
2019-01-03T15:12:12.422Z,104141.28
2019-01-03T15:14:40.703Z,104144.94
2019-01-03T15:17:08.899Z,104148.63
2019-01-03T15:19:37.246Z,104149.70
2019-01-03T15:22:05.264Z,104149.92
2019-01-03T15:24:39.442Z,104157.28
2019-01-03T15:27:07.579Z,104151.63
2019-01-03T15:29:38.354Z,104147.30
2019-01-03T15:32:06.536Z,104158.33
2019-01-03T15:34:34.880Z,104164.23
2019-01-03T15:37:06.211Z,104165.80
2019-01-03T15:39:34.218Z,104168.50
2019-01-03T15:42:02.458Z,104167.79
2019-01-03T15:44:30.307Z,104170.30
2019-01-03T15:46:58.339Z,104162.77
2019-01-03T15:49:26.316Z,104169.73
2019-01-03T15:51:54.114Z,104166.72
2019-01-03T15:54:41.514Z,104162.82
2019-01-03T15:57:09.306Z,104135.81
2019-01-03T15:59:37.226Z,104173.17
2019-01-03T16:02:05.013Z,104175.69
2019-01-03T16:04:32.946Z,104174.94
2019-01-03T16:07:00.931Z,104177.91
2019-01-03T16:09:28.775Z,104172.02
2019-01-03T16:11:57.014Z,104176.22
2019-01-03T16:14:25.059Z,104169.91
2019-01-03T16:16:52.970Z,104177.73
2019-01-03T16:19:20.922Z,104187.34
2019-01-03T16:21:48.740Z,104183.88
2019-01-03T16:24:17.021Z,104187.96
2019-01-03T16:26:45.099Z,104192.33
2019-01-03T16:29:13.146Z,104196.12
2019-01-03T16:31:41.086Z,104199.95
2019-01-03T16:34:11.961Z,104196.30
2019-01-03T16:36:39.933Z,104197.52
2019-01-03T16:39:07.731Z,104195.59
2019-01-03T16:41:35.546Z,104198.06
2019-01-03T16:44:03.608Z,104195.42
2019-01-03T16:46:31.515Z,104203.73
2019-01-03T16:48:59.699Z,104194.62
2019-01-03T16:51:28.063Z,104193.83
2019-01-03T16:54:00.302Z,104190.31
2019-01-03T16:56:28.300Z,104186.16
2019-01-03T16:58:56.590Z,104195.56
2019-01-03T17:01:24.607Z,104194.43
2019-01-03T17:03:53.449Z,104190.53
2019-01-03T17:06:21.663Z,104192.24
2019-01-03T17:08:52.722Z,104193.69
2019-01-03T17:11:20.835Z,104189.36
2019-01-03T17:13:48.995Z,104185.55
2019-01-03T17:16:19.327Z,104180.41
2019-01-03T17:18:49.929Z,104183.44
2019-01-03T17:21:17.845Z,104175.24
2019-01-03T17:23:45.719Z,104177.84
2019-01-03T17:26:13.678Z,104185.61
2019-01-03T17:28:41.576Z,104192.48
2019-01-03T17:31:09.417Z,104188.17
2019-01-03T17:33:39.160Z,104192.83
2019-01-03T17:36:07.190Z,104193.27
2019-01-03T17:38:34.985Z,104191.84
2019-01-03T17:41:02.916Z,104189.19
2019-01-03T17:43:31.099Z,104193.69
2019-01-03T17:46:01.564Z,104196.14
2019-01-03T17:48:29.536Z,104190.70
2019-01-03T17:50:57.493Z,104206.10
2019-01-03T17:53:25.440Z,104207.25
2019-01-03T17:55:53.282Z,104198.41
2019-01-03T17:58:21.311Z,104197.91
2019-01-03T18:00:49.937Z,104207.53
2019-01-03T18:03:17.954Z,104213.31
2019-01-03T18:05:46.019Z,104218.28
2019-01-03T18:08:14.102Z,104213.69
2019-01-03T18:10:42.000Z,104219.07
2019-01-03T18:13:10.001Z,104210.12
2019-01-03T18:15:37.870Z,104214.41
2019-01-03T18:18:05.853Z,104203.69
2019-01-03T18:20:33.717Z,104205.58
2019-01-03T18:23:01.657Z,104205.64
2019-01-03T18:25:29.592Z,104202.08
2019-01-03T18:28:00.293Z,104189.22
2019-01-03T18:30:28.136Z,104168.17
2019-01-03T18:32:56.175Z,104163.22
2019-01-03T18:35:24.028Z,104158.80
2019-01-03T18:37:51.971Z,104156.42
2019-01-03T18:40:20.772Z,104156.16
2019-01-03T18:42:48.758Z,104157.03
2019-01-03T18:45:21.218Z,104156.26
2019-01-03T18:47:49.104Z,104145.02
2019-01-03T18:50:19.056Z,104150.14
2019-01-03T18:52:46.787Z,104149.55
2019-01-03T18:55:14.823Z,104163.09
2019-01-03T18:57:42.768Z,104184.50
2019-01-03T19:00:11.103Z,104198.48
2019-01-03T19:02:42.280Z,104192.14
2019-01-03T19:05:10.850Z,104179.08
2019-01-03T19:07:38.948Z,104185.41
2019-01-03T19:10:09.258Z,104175.39
2019-01-03T19:12:37.147Z,104166.48
2019-01-03T19:15:06.844Z,104187.10
2019-01-03T19:17:35.105Z,104180.34
2019-01-03T19:20:04.482Z,104175.86
2019-01-03T19:22:33.235Z,104180.02
2019-01-03T19:25:01.512Z,104171.06
2019-01-03T19:27:37.173Z,104169.64
2019-01-03T19:30:09.259Z,104162.69
2019-01-03T19:32:37.160Z,104162.59
2019-01-03T19:35:06.550Z,104165.58
2019-01-03T19:37:36.993Z,104157.92
2019-01-03T19:40:06.726Z,104164.77
2019-01-03T19:42:41.059Z,104162.23
2019-01-03T19:45:12.563Z,104163.27
2019-01-03T19:47:40.628Z,104171.41
2019-01-03T19:50:14.708Z,104173.21
2019-01-03T19:52:42.669Z,104171.27
2019-01-03T19:55:10.851Z,104175.95
2019-01-03T19:57:38.914Z,104191.57
2019-01-03T20:00:10.465Z,104190.35
2019-01-03T20:02:38.308Z,104189.80
2019-01-03T20:05:08.258Z,104194.34
2019-01-03T20:07:37.132Z,104199.17
2019-01-03T20:10:08.788Z,104204.72
2019-01-03T20:12:43.428Z,104205.80
2019-01-03T20:15:13.845Z,104205.98
2019-01-03T20:17:42.267Z,104208.79
2019-01-03T20:20:18.717Z,104210.66
2019-01-03T20:22:48.984Z,104215.78
2019-01-03T20:25:22.174Z,104221.72
2019-01-03T20:27:50.562Z,104220.35
2019-01-03T20:30:18.982Z,104224.64
2019-01-03T20:32:49.406Z,104223.70
2019-01-03T20:35:17.269Z,104216.67
2019-01-03T20:37:45.743Z,104214.95
2019-01-03T20:40:14.625Z,104214.30
2019-01-03T20:42:44.728Z,104210.63
2019-01-03T20:45:12.853Z,104207.31
2019-01-03T20:47:40.718Z,104207.52
2019-01-03T20:50:09.539Z,104207.88
2019-01-03T20:52:37.521Z,104200.42
2019-01-03T20:55:06.569Z,104206.36
2019-01-03T20:57:34.559Z,104211.27
2019-01-03T21:00:02.824Z,104206.09
2019-01-03T21:02:30.933Z,104202.91
2019-01-03T21:04:58.786Z,104202.56
2019-01-03T21:07:26.765Z,104199.22
2019-01-03T21:09:54.697Z,104197.17
2019-01-03T21:12:22.585Z,104202.58
2019-01-03T21:14:50.602Z,104191.97
2019-01-03T21:17:18.731Z,104198.59
2019-01-03T21:19:49.020Z,104203.85
2019-01-03T21:22:16.973Z,104199.75
2019-01-03T21:24:45.090Z,104205.37
2019-01-03T21:27:15.729Z,104203.68
2019-01-03T21:29:43.776Z,104198.45
2019-01-03T21:32:11.808Z,104192.91
2019-01-03T21:34:39.633Z,104186.87
2019-01-03T21:37:07.666Z,104185.14
2019-01-03T21:39:38.104Z,104189.23
2019-01-03T21:42:06.059Z,104190.00
2019-01-03T21:44:34.140Z,104182.21
2019-01-03T21:47:02.026Z,104190.80
2019-01-03T21:49:29.974Z,104189.06
2019-01-03T21:51:58.656Z,104187.57
2019-01-03T21:54:26.615Z,104181.28
2019-01-03T21:56:54.595Z,104182.37
2019-01-03T21:59:22.475Z,104180.87
2019-01-03T22:01:50.357Z,104178.30
2019-01-03T22:04:18.516Z,104186.19
2019-01-03T22:06:46.582Z,104182.83
2019-01-03T22:09:15.367Z,104176.11
2019-01-03T22:11:43.311Z,104179.08
2019-01-03T22:14:11.181Z,104172.25
2019-01-03T22:16:39.265Z,104177.91
2019-01-03T22:19:07.235Z,104167.61
2019-01-03T22:21:37.954Z,104178.64
2019-01-03T22:24:06.041Z,104164.73
2019-01-03T22:26:37.785Z,104172.75
2019-01-03T22:29:06.064Z,104170.67
2019-01-03T22:31:33.959Z,104172.75
2019-01-03T22:34:02.176Z,104169.44
2019-01-03T22:36:30.431Z,104174.81
2019-01-03T22:38:58.465Z,104169.73
2019-01-03T22:41:28.100Z,104170.30
2019-01-03T22:43:57.445Z,104171.11
2019-01-03T22:46:25.492Z,104173.02
2019-01-03T22:48:53.405Z,104173.33
2019-01-03T22:51:21.362Z,104170.03
2019-01-03T22:53:49.442Z,104166.53
2019-01-03T22:56:17.604Z,104164.17
2019-01-03T22:58:47.604Z,104168.40
2019-01-03T23:01:23.759Z,104168.86
2019-01-03T23:03:51.904Z,104160.22
2019-01-03T23:06:20.007Z,104172.73
2019-01-03T23:08:52.558Z,104165.94
2019-01-03T23:11:20.541Z,104164.81
2019-01-03T23:13:48.639Z,104162.82
2019-01-03T23:16:22.517Z,104151.86
2019-01-03T23:18:50.462Z,104155.45
2019-01-03T23:21:18.744Z,104154.23
2019-01-03T23:23:46.905Z,104148.22
2019-01-03T23:26:14.765Z,104156.02
2019-01-03T23:28:44.456Z,104160.78
2019-01-03T23:31:12.434Z,104162.20
2019-01-03T23:33:43.381Z,104158.95
2019-01-03T23:36:13.237Z,104146.22
2019-01-03T23:38:41.149Z,104149.08
2019-01-03T23:41:12.403Z,104149.36
2019-01-03T23:43:59.462Z,104154.43
2019-01-03T23:46:27.930Z,104163.08
2019-01-03T23:48:55.964Z,104146.67
2019-01-03T23:51:23.971Z,104146.23
2019-01-03T23:53:51.954Z,104144.45
2019-01-03T23:56:20.027Z,104151.95
2019-01-03T23:58:48.103Z,104152.82
